createdAt,value
2019-05-16T00:00:32.091Z,13.7
2019-05-16T00:01:33.744Z,13.4
2019-05-16T00:02:35.117Z,13
2019-05-16T00:03:38.513Z,13.2
2019-05-16T00:04:41.869Z,13.1
2019-05-16T00:05:51.322Z,13
2019-05-16T00:06:55.511Z,13.4
2019-05-16T00:07:59.495Z,13.3
2019-05-16T00:09:01.072Z,13.4
2019-05-16T00:10:02.643Z,13.4
2019-05-16T00:11:03.915Z,13.5
2019-05-16T00:12:05.280Z,13.3
2019-05-16T00:13:08.476Z,13.1
2019-05-16T00:14:09.922Z,13.1
2019-05-16T00:15:11.211Z,13.1
2019-05-16T00:16:15.427Z,13.5
2019-05-16T00:17:19.381Z,13.4
2019-05-16T00:18:20.869Z,13
2019-05-16T00:19:22.161Z,13.5
2019-05-16T00:20:23.455Z,13.4
2019-05-16T00:22:40.523Z,13.7
2019-05-16T00:23:41.815Z,13.2
2019-05-16T00:24:43.091Z,13.2
2019-05-16T00:25:44.661Z,13.5
2019-05-16T00:26:47.851Z,13.8
2019-05-16T00:27:49.439Z,13.1
2019-05-16T00:28:50.720Z,12.9
2019-05-16T00:29:52.142Z,13.1
2019-05-16T00:30:53.429Z,13.6
2019-05-16T00:31:54.743Z,13
2019-05-16T00:32:58.162Z,12.9
2019-05-16T00:34:00.279Z,13.4
2019-05-16T00:35:01.620Z,13.2
2019-05-16T00:36:05.741Z,13.3
2019-05-16T00:37:09.836Z,13.3
2019-05-16T00:38:11.167Z,13.3
2019-05-16T00:39:12.481Z,13.3
2019-05-16T00:40:13.759Z,13.3
2019-05-16T00:41:15.045Z,13.4
2019-05-16T00:42:21.581Z,12.9
2019-05-16T00:43:23.019Z,13.1
2019-05-16T00:44:24.359Z,13.2
2019-05-16T00:45:25.630Z,13.4
2019-05-16T00:46:30.111Z,13.3
2019-05-16T00:47:31.643Z,13.4
2019-05-16T00:48:32.965Z,13.4
2019-05-16T00:49:34.273Z,13.2
2019-05-16T00:50:35.561Z,13
2019-05-16T00:51:37.663Z,13.1
2019-05-16T00:52:39.635Z,13.2
2019-05-16T00:53:41.318Z,13.1
2019-05-16T00:54:42.577Z,13.2
2019-05-16T00:55:43.885Z,13.1
2019-05-16T00:56:45.134Z,13.1
2019-05-16T00:57:48.099Z,13
2019-05-16T00:58:49.733Z,13.2
2019-05-16T00:59:53.586Z,13.3
2019-05-16T01:00:55.031Z,13.1
2019-05-16T01:01:58.614Z,13.2
2019-05-16T01:03:00.023Z,13.1
2019-05-16T01:04:01.331Z,13.2
2019-05-16T01:05:03.246Z,13.2
2019-05-16T01:06:15.615Z,12.7
2019-05-16T01:07:23.465Z,13
2019-05-16T01:08:25.012Z,13.3
2019-05-16T01:09:28.728Z,13.2
2019-05-16T01:10:30.010Z,13
2019-05-16T01:11:31.274Z,13.2
2019-05-16T01:12:34.890Z,13.2
2019-05-16T01:13:37.987Z,13.1
2019-05-16T01:14:39.441Z,13
2019-05-16T01:15:40.714Z,13
2019-05-16T01:16:41.988Z,13.1
2019-05-16T01:17:43.273Z,13.4
2019-05-16T01:18:45.297Z,13.2
2019-05-16T01:19:49.274Z,13.3
2019-05-16T01:20:50.559Z,12.7
2019-05-16T01:21:51.982Z,12.7
2019-05-16T01:22:53.308Z,13
2019-05-16T01:23:54.585Z,13
2019-05-16T01:24:58.303Z,12.9
2019-05-16T01:26:00.384Z,13
2019-05-16T01:27:01.646Z,13
2019-05-16T01:28:02.906Z,12.9
2019-05-16T01:29:04.310Z,12.9
2019-05-16T01:30:05.937Z,12.8
2019-05-16T01:31:09.695Z,12.8
2019-05-16T01:32:14.398Z,12.9
2019-05-16T01:33:19.736Z,12.9
2019-05-16T01:34:21.042Z,13
2019-05-16T01:35:22.362Z,12.9
2019-05-16T01:36:34.148Z,13.1
2019-05-16T01:37:40.768Z,13.3
2019-05-16T01:38:42.061Z,13.4
2019-05-16T01:39:43.634Z,13.1
2019-05-16T01:40:44.917Z,12.9
2019-05-16T01:41:48.059Z,12.8
2019-05-16T01:42:49.833Z,12.9
2019-05-16T01:43:51.106Z,12.8
2019-05-16T01:44:52.367Z,12.7
2019-05-16T01:45:53.693Z,12.9
2019-05-16T01:46:54.970Z,12.9
2019-05-16T01:47:58.248Z,13.1
2019-05-16T01:48:59.992Z,13
2019-05-16T01:50:01.262Z,12.9
2019-05-16T01:51:02.551Z,12.8
2019-05-16T01:52:03.840Z,13
2019-05-16T01:53:05.136Z,12.9
2019-05-16T01:54:08.512Z,12.8
2019-05-16T01:55:10.028Z,12.9
2019-05-16T01:56:11.341Z,12.9
2019-05-16T01:57:12.622Z,12.3
2019-05-16T01:58:13.900Z,12.7
2019-05-16T01:59:15.198Z,12.8
2019-05-16T02:00:24.533Z,12.9
2019-05-16T02:01:37.768Z,12.8
2019-05-16T02:02:39.362Z,12.9
2019-05-16T02:03:42.008Z,12.6
2019-05-16T02:04:48.984Z,12.6
2019-05-16T02:05:50.267Z,12.6
2019-05-16T02:06:54.647Z,12.5
2019-05-16T02:07:59.091Z,12.6
2019-05-16T02:09:00.366Z,12.6
2019-05-16T02:10:01.647Z,12.6
2019-05-16T02:11:02.955Z,12.6
2019-05-16T02:12:04.322Z,12.7
2019-05-16T02:13:11.208Z,12.4
2019-05-16T02:14:12.508Z,12.5
2019-05-16T02:15:13.794Z,12.5
2019-05-16T02:16:15.060Z,12.5
2019-05-16T02:17:18.311Z,12.6
2019-05-16T02:18:19.886Z,12.7
2019-05-16T02:19:21.171Z,12.8
2019-05-16T02:20:22.458Z,12.9
2019-05-16T02:21:23.744Z,12.8
2019-05-16T02:22:25.211Z,12.8
2019-05-16T02:23:27.748Z,12.8
2019-05-16T02:24:29.348Z,12.7
2019-05-16T02:25:30.788Z,12.6
2019-05-16T02:26:32.336Z,12.5
2019-05-16T02:27:33.924Z,12.4
2019-05-16T02:28:39.939Z,12.3
2019-05-16T02:29:51.637Z,12.3
2019-05-16T02:30:52.924Z,12.3
2019-05-16T02:31:54.221Z,12.5
2019-05-16T02:32:56.676Z,12.4
2019-05-16T02:33:57.962Z,12.2
2019-05-16T02:35:02.458Z,12.7
2019-05-16T02:36:03.788Z,12.2
2019-05-16T02:37:19.860Z,12.1
2019-05-16T02:38:35.838Z,12.3
2019-05-16T02:39:40.897Z,12.2
2019-05-16T02:40:42.362Z,12.1
2019-05-16T02:41:46.116Z,11.8
2019-05-16T02:42:47.696Z,12.3
2019-05-16T02:43:52.079Z,12.6
2019-05-16T02:44:53.922Z,12.6
2019-05-16T02:45:55.368Z,12.4
2019-05-16T02:46:56.656Z,12.2
2019-05-16T02:48:10.932Z,12.2
2019-05-16T02:49:22.038Z,12.3
2019-05-16T02:50:23.341Z,12.6
2019-05-16T02:51:25.305Z,12.8
2019-05-16T02:52:26.595Z,12.7
2019-05-16T02:53:30.665Z,12.6
2019-05-16T02:54:32.323Z,12.4
2019-05-16T02:55:34.758Z,12
2019-05-16T02:56:36.041Z,12.5
2019-05-16T02:57:41.094Z,12.5
2019-05-16T02:58:44.789Z,12.4
2019-05-16T02:59:46.634Z,12.6
2019-05-16T03:00:51.731Z,12.9
2019-05-16T03:01:55.651Z,13
2019-05-16T03:03:00.974Z,12.6
2019-05-16T03:04:02.561Z,12.2
2019-05-16T03:05:03.939Z,12.2
2019-05-16T03:06:05.241Z,12.4
2019-05-16T03:07:06.558Z,12.6
2019-05-16T03:08:07.992Z,12.6
2019-05-16T03:09:14.249Z,12.5
2019-05-16T03:10:20.113Z,12.3
2019-05-16T03:11:21.679Z,12.4
2019-05-16T03:12:22.975Z,12
2019-05-16T03:13:24.260Z,12.4
2019-05-16T03:14:25.571Z,12.3
2019-05-16T03:15:27.134Z,12.3
2019-05-16T03:16:31.839Z,12.5
2019-05-16T03:17:33.402Z,12.1
2019-05-16T03:18:34.740Z,12.2
2019-05-16T03:19:36.027Z,12.1
2019-05-16T03:20:40.754Z,12.2
2019-05-16T03:21:42.320Z,12.2
2019-05-16T03:22:43.634Z,12.5
2019-05-16T03:23:44.906Z,12.3
2019-05-16T03:24:46.196Z,12.4
2019-05-16T03:25:50.510Z,12.4
2019-05-16T03:26:52.372Z,12.5
2019-05-16T03:27:53.653Z,12.6
2019-05-16T03:28:54.959Z,12.5
2019-05-16T03:29:56.262Z,12.2
2019-05-16T03:31:03.338Z,12.2
2019-05-16T03:32:07.079Z,12.4
2019-05-16T03:33:19.673Z,12.4
2019-05-16T03:34:35.005Z,12.5
2019-05-16T03:35:43.898Z,12.4
2019-05-16T03:36:53.592Z,12.3
2019-05-16T03:38:00.113Z,12.2
2019-05-16T03:39:06.067Z,12.1
2019-05-16T03:40:10.311Z,12.4
2019-05-16T03:41:12.363Z,12.4
2019-05-16T03:42:15.805Z,12.4
2019-05-16T03:43:17.099Z,12.2
2019-05-16T03:44:20.947Z,12.1
2019-05-16T03:45:22.733Z,12
2019-05-16T03:46:24.020Z,12
2019-05-16T03:47:25.668Z,12.6
2019-05-16T03:48:27.310Z,12.4
2019-05-16T03:49:32.127Z,12.5
2019-05-16T03:50:33.434Z,12.5
2019-05-16T03:51:34.747Z,12.1
2019-05-16T03:52:43.418Z,11.9
2019-05-16T03:53:45.090Z,11.9
2019-05-16T03:54:50.664Z,12.3
2019-05-16T03:55:52.125Z,12.5
2019-05-16T03:56:53.417Z,12.1
2019-05-16T03:57:54.720Z,12
2019-05-16T03:59:02.132Z,11.6
2019-05-16T04:00:03.495Z,11.9
2019-05-16T04:01:04.788Z,12
2019-05-16T04:02:06.385Z,12
2019-05-16T04:03:07.708Z,11.6
2019-05-16T04:04:12.386Z,11.6
2019-05-16T04:05:13.691Z,11.9
2019-05-16T04:06:14.983Z,12.2
2019-05-16T04:07:16.267Z,12.2
2019-05-16T04:08:24.718Z,12.2
2019-05-16T04:09:27.012Z,12.2
2019-05-16T04:10:30.894Z,12.5
2019-05-16T04:11:32.537Z,12.4
2019-05-16T04:12:33.822Z,12.2
2019-05-16T04:13:35.144Z,12.3
2019-05-16T04:14:36.419Z,12.1
2019-05-16T04:15:41.634Z,11.8
2019-05-16T04:16:42.970Z,11.9
2019-05-16T04:17:46.753Z,12.2
2019-05-16T04:18:51.133Z,12.1
2019-05-16T04:19:52.764Z,12.3
2019-05-16T04:20:54.042Z,12.3
2019-05-16T04:21:55.395Z,12.2
2019-05-16T04:22:56.669Z,12.1
2019-05-16T04:24:01.771Z,11.9
2019-05-16T04:25:03.077Z,12.2
2019-05-16T04:26:04.381Z,12.1
2019-05-16T04:27:05.683Z,12.2
2019-05-16T04:28:12.938Z,12.3
2019-05-16T04:29:14.327Z,12.2
2019-05-16T04:30:15.615Z,12
2019-05-16T04:31:16.955Z,11.8
2019-05-16T04:32:20.788Z,11.9
2019-05-16T04:33:22.642Z,11.9
2019-05-16T04:34:26.406Z,12
2019-05-16T04:35:31.921Z,12
2019-05-16T04:36:33.209Z,12.1
2019-05-16T04:37:34.489Z,12.1
2019-05-16T04:38:41.222Z,12.2
2019-05-16T04:39:50.547Z,12
2019-05-16T04:40:54.209Z,11.9
2019-05-16T04:41:55.486Z,11.8
2019-05-16T04:42:56.775Z,12
2019-05-16T04:44:04.767Z,11.7
2019-05-16T04:45:06.403Z,11.8
2019-05-16T04:46:11.372Z,11.9
2019-05-16T04:47:13.017Z,11.8
2019-05-16T04:48:14.299Z,11.8
2019-05-16T04:49:15.584Z,12.1
2019-05-16T04:50:16.921Z,12.1
2019-05-16T04:51:22.063Z,12
2019-05-16T04:52:26.620Z,12
2019-05-16T04:53:31.724Z,12.3
2019-05-16T04:54:33.208Z,12
2019-05-16T04:55:34.579Z,11.9
2019-05-16T04:56:35.902Z,12.1
2019-05-16T04:57:37.193Z,12
2019-05-16T04:58:40.721Z,11.9
2019-05-16T04:59:42.655Z,12
2019-05-16T05:00:43.957Z,12
2019-05-16T05:01:45.282Z,11.9
2019-05-16T05:02:46.568Z,12
2019-05-16T05:04:01.545Z,12
2019-05-16T05:05:15.436Z,12.1
2019-05-16T05:06:16.763Z,12.1
2019-05-16T05:07:21.394Z,11.9
2019-05-16T05:08:22.756Z,12.1
2019-05-16T05:09:24.107Z,12
2019-05-16T05:10:25.397Z,12.1
2019-05-16T05:11:26.758Z,12.3
2019-05-16T05:12:31.544Z,12.2
2019-05-16T05:13:33.001Z,12.3
2019-05-16T05:14:34.321Z,12.2
2019-05-16T05:15:35.662Z,12.1
2019-05-16T05:16:36.973Z,12.2
2019-05-16T05:17:40.907Z,12.1
2019-05-16T05:18:42.470Z,11.9
2019-05-16T05:19:45.132Z,12.1
2019-05-16T05:20:46.458Z,12.3
2019-05-16T05:21:47.803Z,12.4
2019-05-16T05:22:52.016Z,12.4
2019-05-16T05:23:53.364Z,12.5
2019-05-16T05:24:54.665Z,12.5
2019-05-16T05:25:57.102Z,12.2
2019-05-16T05:27:00.981Z,11.9
2019-05-16T05:28:02.290Z,12
2019-05-16T05:29:03.591Z,12
2019-05-16T05:30:04.858Z,11.9
2019-05-16T05:31:06.156Z,12
2019-05-16T05:32:07.482Z,12
2019-05-16T05:33:14.839Z,11.9
2019-05-16T05:34:16.134Z,11.6
2019-05-16T05:35:20.298Z,11.4
2019-05-16T05:36:21.933Z,11.3
2019-05-16T05:37:26.320Z,11.5
2019-05-16T05:38:27.609Z,12
2019-05-16T05:39:31.676Z,12.1
2019-05-16T05:40:32.968Z,12.3
2019-05-16T05:41:34.244Z,12.5
2019-05-16T05:42:35.612Z,12.1
2019-05-16T05:43:36.912Z,12.3
2019-05-16T05:44:40.428Z,12
2019-05-16T05:45:41.745Z,12.1
2019-05-16T05:46:43.068Z,12.1
2019-05-16T05:47:44.438Z,12.4
2019-05-16T05:48:45.716Z,12.3
2019-05-16T05:49:49.328Z,12.2
2019-05-16T05:50:51.177Z,12.1
2019-05-16T05:51:57.474Z,12.4
2019-05-16T05:53:04.632Z,12.6
2019-05-16T05:54:05.913Z,12.8
2019-05-16T05:55:07.196Z,12.3
2019-05-16T05:56:11.558Z,12.1
2019-05-16T05:57:14.228Z,12.2
2019-05-16T05:58:15.548Z,12.2
2019-05-16T05:59:16.840Z,12.4
2019-05-16T06:00:21.164Z,12.5
2019-05-16T06:01:24.632Z,12.6
2019-05-16T06:02:27.000Z,12.5
2019-05-16T06:03:32.342Z,12.5
2019-05-16T06:04:34.109Z,12.7
2019-05-16T06:05:35.410Z,12.8
2019-05-16T06:06:36.686Z,13.6
2019-05-16T06:07:40.383Z,14.3
2019-05-16T06:08:50.175Z,14.6
2019-05-16T06:09:56.105Z,14.9
2019-05-16T06:10:57.862Z,15.1
2019-05-16T06:12:01.485Z,15.2
2019-05-16T06:13:02.934Z,15.3
2019-05-16T06:14:04.637Z,15.2
2019-05-16T06:15:08.981Z,15.3
2019-05-16T06:16:13.445Z,15.4
2019-05-16T06:17:14.750Z,15.5
2019-05-16T06:18:16.095Z,15.5
2019-05-16T06:19:17.452Z,15.6
2019-05-16T06:20:21.166Z,15.5
2019-05-16T06:21:22.478Z,15.6
2019-05-16T06:22:23.790Z,15.6
2019-05-16T06:23:26.870Z,15.6
2019-05-16T06:24:31.965Z,15.7
2019-05-16T06:25:33.251Z,15.8
2019-05-16T06:26:34.642Z,15.9
2019-05-16T06:27:35.931Z,15.9
2019-05-16T06:28:37.239Z,15.9
2019-05-16T06:29:41.952Z,16
2019-05-16T06:30:43.317Z,16.1
2019-05-16T06:31:44.611Z,16.2
2019-05-16T06:32:45.928Z,16.2
2019-05-16T06:33:49.625Z,16.2
2019-05-16T06:34:51.506Z,16.3
2019-05-16T06:35:55.404Z,16.3
2019-05-16T06:36:56.726Z,16.3
2019-05-16T06:38:00.468Z,16.2
2019-05-16T06:39:02.003Z,16.4
2019-05-16T06:40:03.347Z,16.4
2019-05-16T06:41:07.292Z,16.4
2019-05-16T06:42:11.251Z,16.4
2019-05-16T06:43:12.589Z,16.4
2019-05-16T06:44:13.930Z,16.4
2019-05-16T06:45:15.248Z,16.4
2019-05-16T06:46:20.074Z,16.3
2019-05-16T06:47:23.058Z,16.2
2019-05-16T06:48:26.520Z,16.4
2019-05-16T06:49:41.130Z,16.4
2019-05-16T06:50:42.528Z,16.4
2019-05-16T06:51:43.851Z,16.5
2019-05-16T06:52:45.869Z,16.6
2019-05-16T06:53:50.908Z,16.6
2019-05-16T06:54:53.875Z,16.7
2019-05-16T06:55:56.861Z,16.6
2019-05-16T06:57:00.727Z,16.6
2019-05-16T06:58:02.059Z,16.6
2019-05-16T06:59:03.447Z,16.7
2019-05-16T07:00:04.781Z,16.7
2019-05-16T07:01:06.171Z,16.7
2019-05-16T07:02:07.481Z,16.7
2019-05-16T07:03:12.592Z,16.8
2019-05-16T07:04:21.341Z,16.8
2019-05-16T07:05:22.641Z,16.8
2019-05-16T07:06:48.230Z,16.7
2019-05-16T07:07:59.840Z,16.9
2019-05-16T07:09:01.258Z,16.9
2019-05-16T07:10:04.887Z,16.9
2019-05-16T07:11:06.225Z,16.9
2019-05-16T07:12:07.585Z,17
2019-05-16T07:13:11.157Z,17.1
2019-05-16T07:14:12.494Z,17
2019-05-16T07:15:14.037Z,17
2019-05-16T07:16:15.373Z,17.1
2019-05-16T07:17:16.715Z,17.1
2019-05-16T07:18:21.270Z,17.1
2019-05-16T07:19:22.749Z,17.1
2019-05-16T07:20:25.356Z,17.1
2019-05-16T07:21:26.722Z,17.1
2019-05-16T07:22:31.158Z,17.2
2019-05-16T07:23:35.169Z,17.2
2019-05-16T07:24:36.487Z,17.2
2019-05-16T07:25:37.821Z,17.2
2019-05-16T07:26:41.501Z,17.2
2019-05-16T07:27:43.085Z,17.2
2019-05-16T07:28:44.429Z,17.2
2019-05-16T07:29:45.720Z,17.2
2019-05-16T07:30:49.990Z,17.2
2019-05-16T07:31:52.373Z,17.2
2019-05-16T07:32:54.269Z,17.3
2019-05-16T07:33:56.898Z,17.2
2019-05-16T07:35:00.279Z,17.2
2019-05-16T07:36:01.986Z,17.3
2019-05-16T07:37:03.512Z,17.4
2019-05-16T07:38:05.005Z,17.4
2019-05-16T07:39:06.403Z,17.4
2019-05-16T07:40:16.961Z,17.4
2019-05-16T07:41:27.653Z,17.4
2019-05-16T07:42:31.723Z,17.4
2019-05-16T07:43:34.529Z,17.4
2019-05-16T07:44:37.858Z,17.4
2019-05-16T07:45:41.735Z,17.4
2019-05-16T07:46:51.245Z,17.4
2019-05-16T07:47:52.863Z,17.5
2019-05-16T07:48:54.253Z,17.5
2019-05-16T07:50:00.274Z,17.5
2019-05-16T07:51:01.633Z,17.5
2019-05-16T07:52:03.077Z,17.4
2019-05-16T07:53:04.420Z,17.5
2019-05-16T07:54:09.974Z,17.5
2019-05-16T07:55:13.987Z,17.5
2019-05-16T07:56:15.319Z,17.5
2019-05-16T07:57:20.166Z,17.5
2019-05-16T07:58:24.288Z,17.5
2019-05-16T07:59:25.631Z,17.6
2019-05-16T08:00:41.863Z,17.5
2019-05-16T08:02:00.505Z,17.5
2019-05-16T08:03:02.024Z,17.6
2019-05-16T08:04:03.479Z,17.6
2019-05-16T08:05:04.929Z,17.6
2019-05-16T08:06:06.278Z,17.6
2019-05-16T08:07:07.609Z,17.6
2019-05-16T08:08:11.543Z,17.6
2019-05-16T08:09:14.330Z,17.6
2019-05-16T08:10:36.306Z,17.6
2019-05-16T08:11:47.091Z,17.6
2019-05-16T08:12:51.400Z,17.6
2019-05-16T08:15:52.842Z,17.7
2019-05-16T08:16:56.594Z,17.7
2019-05-16T08:18:02.821Z,17.7
2019-05-16T08:19:04.471Z,17.7
2019-05-16T08:20:05.824Z,17.7
2019-05-16T08:21:10.629Z,17.7
2019-05-16T08:22:17.300Z,17.7
2019-05-16T08:23:21.822Z,17.7
2019-05-16T08:24:23.700Z,17.6
2019-05-16T08:25:24.997Z,17.8
2019-05-16T08:26:26.352Z,17.7
2019-05-16T08:27:30.454Z,17.7
2019-05-16T08:28:32.483Z,17.8
2019-05-16T08:29:35.150Z,17.7
2019-05-16T08:30:36.657Z,17.7
2019-05-16T08:31:42.927Z,17.7
2019-05-16T08:32:45.560Z,17.7
2019-05-16T08:33:46.939Z,17.7
2019-05-16T08:34:51.196Z,17.7
2019-05-16T08:35:52.784Z,17.7
2019-05-16T08:36:54.310Z,17.7
2019-05-16T08:38:07.649Z,17.8
2019-05-16T08:39:11.011Z,17.8
2019-05-16T08:40:12.829Z,17.8
2019-05-16T08:41:17.210Z,17.8
2019-05-16T08:44:22.947Z,17.7
2019-05-16T08:45:26.814Z,17.8
2019-05-16T08:46:31.875Z,17.8
2019-05-16T08:47:33.672Z,17.9
2019-05-16T08:48:35.284Z,17.8
2019-05-16T08:49:43.518Z,17.9
2019-05-16T08:50:51.219Z,17.9
2019-05-16T08:51:56.072Z,17.9
2019-05-16T08:53:02.768Z,17.9
2019-05-16T08:54:04.841Z,17.9
2019-05-16T08:55:12.327Z,17.9
2019-05-16T08:56:21.613Z,17.9
2019-05-16T08:57:27.688Z,18
2019-05-16T08:58:40.981Z,17.9
2019-05-16T08:59:44.260Z,18
2019-05-16T09:00:45.814Z,18
2019-05-16T09:01:53.233Z,18
2019-05-16T09:04:56.454Z,18
2019-05-16T09:06:06.425Z,18
2019-05-16T09:07:07.887Z,18.1
2019-05-16T09:08:13.280Z,18
2019-05-16T09:09:29.103Z,18
2019-05-16T09:11:45.722Z,18.1
2019-05-16T09:12:57.166Z,18
2019-05-16T09:14:03.484Z,18
2019-05-16T09:15:07.618Z,18
2019-05-16T09:16:09.268Z,18.1
2019-05-16T09:17:22.701Z,18
2019-05-16T09:18:29.236Z,18.1
2019-05-16T09:19:31.065Z,18.1
2019-05-16T09:20:38.116Z,18.1
2019-05-16T09:21:43.691Z,18.1
2019-05-16T09:22:48.478Z,18.1
2019-05-16T09:23:49.801Z,18.1
2019-05-16T09:24:57.609Z,18.1
2019-05-16T09:25:59.219Z,18.1
2019-05-16T09:27:03.338Z,18.2
2019-05-16T09:28:12.109Z,18.2
2019-05-16T09:29:13.417Z,18.2
2019-05-16T09:30:20.346Z,18.2
2019-05-16T09:31:30.531Z,18.2
2019-05-16T09:32:31.928Z,18.2
2019-05-16T09:33:33.314Z,18.2
2019-05-16T09:34:37.493Z,18.2
2019-05-16T09:35:47.545Z,18.2
2019-05-16T09:36:51.418Z,18.2
2019-05-16T09:38:01.326Z,18.2
2019-05-16T09:39:14.238Z,18.2
2019-05-16T09:40:17.758Z,18.2
2019-05-16T09:41:22.326Z,18.2
2019-05-16T09:42:32.750Z,18.2
2019-05-16T09:43:34.087Z,18.2
2019-05-16T09:44:36.955Z,18.3
2019-05-16T09:45:38.500Z,18.2
2019-05-16T09:46:42.926Z,18.2
2019-05-16T09:47:44.278Z,18.3
2019-05-16T09:48:49.851Z,18.3
2019-05-16T09:50:12.503Z,18.3
2019-05-16T09:51:13.873Z,18.3
2019-05-16T09:52:18.977Z,18.3
2019-05-16T09:53:27.483Z,18.3
2019-05-16T09:54:34.349Z,18.3
2019-05-16T09:55:38.843Z,18.3
2019-05-16T09:56:40.156Z,18.3
2019-05-16T09:57:42.542Z,18.3
2019-05-16T09:58:43.857Z,18.3
2019-05-16T09:59:48.683Z,18.3
2019-05-16T10:00:50.089Z,18.3
2019-05-16T10:01:56.486Z,18.3
2019-05-16T10:02:58.709Z,18.3
2019-05-16T10:04:02.770Z,18.2
2019-05-16T10:05:04.096Z,18.2
2019-05-16T10:06:08.290Z,18.1
2019-05-16T10:07:10.868Z,18.2
2019-05-16T10:08:12.453Z,18.2
2019-05-16T10:09:13.769Z,18.2
2019-05-16T10:10:18.095Z,18.2
2019-05-16T10:11:21.213Z,18.2
2019-05-16T10:12:32.884Z,18.2
2019-05-16T10:13:34.327Z,18.2
2019-05-16T10:14:38.510Z,18.2
2019-05-16T10:15:40.078Z,18.2
2019-05-16T10:16:41.530Z,18.2
2019-05-16T10:17:42.992Z,18.2
2019-05-16T10:18:48.305Z,18.2
2019-05-16T10:20:00.074Z,18.2
2019-05-16T10:21:02.553Z,18.2
2019-05-16T10:22:03.928Z,18.3
2019-05-16T10:23:14.493Z,18.2
2019-05-16T10:24:19.178Z,18.3
2019-05-16T10:25:27.604Z,18.2
2019-05-16T10:26:33.971Z,18.2
2019-05-16T10:27:38.238Z,18.2
2019-05-16T10:28:39.621Z,18.2
2019-05-16T10:29:41.006Z,18.2
2019-05-16T10:30:42.356Z,18.3
2019-05-16T10:31:53.196Z,18.3
2019-05-16T10:32:59.241Z,18.2
2019-05-16T10:34:07.395Z,18.3
2019-05-16T10:35:09.023Z,18.2
2019-05-16T10:36:10.338Z,18.2
2019-05-16T10:37:11.694Z,18.2
2019-05-16T10:38:14.390Z,18.2
2019-05-16T10:39:16.077Z,18.3
2019-05-16T10:40:18.168Z,18.2
2019-05-16T10:41:21.321Z,18.3
2019-05-16T10:42:28.394Z,18.3
2019-05-16T10:43:30.223Z,18.3
2019-05-16T10:44:31.652Z,18.3
2019-05-16T10:45:42.319Z,18.3
2019-05-16T10:46:43.775Z,18.3
2019-05-16T10:47:50.663Z,18.3
2019-05-16T10:48:52.377Z,18.3
2019-05-16T10:49:53.731Z,18.3
2019-05-16T10:50:57.800Z,18.3
2019-05-16T10:51:59.228Z,18.3
2019-05-16T10:53:20.954Z,18.3
2019-05-16T10:54:36.286Z,18.3
2019-05-16T10:55:47.798Z,18.3
2019-05-16T10:56:49.237Z,18.3
2019-05-16T10:57:50.778Z,18.2
2019-05-16T11:01:10.755Z,18.3
2019-05-16T11:02:27.601Z,18.3
2019-05-16T11:03:29.251Z,18.2
2019-05-16T11:04:48.586Z,18.3
2019-05-16T11:06:10.199Z,18.3
2019-05-16T11:07:29.745Z,18.4
2019-05-16T11:08:39.575Z,18.3
2019-05-16T11:09:55.617Z,18.3
2019-05-16T11:11:06.091Z,18.3
2019-05-16T11:12:10.871Z,18.4
2019-05-16T11:13:12.406Z,18.3
2019-05-16T11:14:16.656Z,18.3
2019-05-16T11:15:19.090Z,18.3
2019-05-16T11:16:20.434Z,18.3
2019-05-16T11:17:22.665Z,18.3
2019-05-16T11:18:27.108Z,18.4
2019-05-16T11:19:30.940Z,18.3
2019-05-16T11:20:44.266Z,18.3
2019-05-16T11:21:50.341Z,18.3
2019-05-16T11:22:51.721Z,18.4
2019-05-16T11:23:53.046Z,18.4
2019-05-16T11:24:57.229Z,18.4
2019-05-16T11:25:58.619Z,18.4
2019-05-16T11:26:59.999Z,18.4
2019-05-16T11:28:01.340Z,18.4
2019-05-16T11:29:02.692Z,18.4
2019-05-16T11:30:04.007Z,18.3
2019-05-16T11:31:07.915Z,18.3
2019-05-16T11:32:12.183Z,18.3
2019-05-16T11:33:16.752Z,18.3
2019-05-16T11:34:18.596Z,18.3
2019-05-16T11:35:19.930Z,18.3
2019-05-16T11:36:21.278Z,18.3
2019-05-16T11:37:22.628Z,18.3
2019-05-16T11:38:24.051Z,18.3
2019-05-16T11:39:27.849Z,18.3
2019-05-16T11:40:30.268Z,18.3
2019-05-16T11:41:34.106Z,18.3
2019-05-16T11:42:37.711Z,18.3
2019-05-16T11:43:42.028Z,18.3
2019-05-16T11:44:43.350Z,18.3
2019-05-16T11:45:53.427Z,18.3
2019-05-16T11:46:57.580Z,18.3
2019-05-16T11:48:10.606Z,18.3
2019-05-16T11:49:13.621Z,18.3
2019-05-16T11:50:17.939Z,18.3
2019-05-16T11:51:19.297Z,18.3
2019-05-16T11:52:20.662Z,18.3
2019-05-16T11:53:23.191Z,18.3
2019-05-16T11:54:29.140Z,18.3
2019-05-16T11:55:35.374Z,18.3
2019-05-16T11:56:56.940Z,18.3
2019-05-16T11:58:01.387Z,18.3
2019-05-16T11:59:02.700Z,18.3
2019-05-16T12:00:04.312Z,18.3
2019-05-16T12:01:07.467Z,18.3
2019-05-16T12:02:08.988Z,18.3
2019-05-16T12:03:10.278Z,18.3
2019-05-16T12:04:17.154Z,18.3
2019-05-16T12:05:18.704Z,18.3
2019-05-16T12:06:22.643Z,18.3
2019-05-16T12:07:31.001Z,18.2
2019-05-16T12:08:37.071Z,18.2
2019-05-16T12:09:51.657Z,18.3
2019-05-16T12:10:56.820Z,18.3
2019-05-16T12:12:03.730Z,18.2
2019-05-16T12:13:07.575Z,18.3
2019-05-16T12:14:28.374Z,18.2
2019-05-16T12:15:29.813Z,18.2
2019-05-16T12:16:31.172Z,18.2
2019-05-16T12:17:32.473Z,18.2
2019-05-16T12:18:34.302Z,18.3
2019-05-16T12:19:43.431Z,18.3
2019-05-16T12:20:48.377Z,18.2
2019-05-16T12:21:49.756Z,18.3
2019-05-16T12:22:51.092Z,18.3
2019-05-16T12:23:54.621Z,18.3
2019-05-16T12:24:58.377Z,18.3
2019-05-16T12:27:09.077Z,18.2
2019-05-16T12:28:10.493Z,18.3
2019-05-16T12:29:11.814Z,18.3
2019-05-16T12:30:17.600Z,18.3
2019-05-16T12:31:26.950Z,18.3
2019-05-16T12:32:31.336Z,18.3
2019-05-16T12:33:32.620Z,18.3
2019-05-16T12:34:38.396Z,18.3
2019-05-16T12:35:39.724Z,18.3
2019-05-16T12:36:41.062Z,18.3
2019-05-16T12:37:42.564Z,18.3
2019-05-16T12:38:46.593Z,18.3
2019-05-16T12:39:53.560Z,18.3
2019-05-16T12:40:58.090Z,18.2
2019-05-16T12:41:59.970Z,18.3
2019-05-16T12:43:01.528Z,18.3
2019-05-16T12:44:03.093Z,18.3
2019-05-16T12:45:04.416Z,18.3
2019-05-16T12:46:08.034Z,18.3
2019-05-16T12:47:09.386Z,18.3
2019-05-16T12:48:10.778Z,18.3
2019-05-16T12:49:13.075Z,18.3
2019-05-16T12:50:17.498Z,18.3
2019-05-16T12:51:20.293Z,18.3
2019-05-16T12:52:23.474Z,18.2
2019-05-16T12:53:31.567Z,18.3
2019-05-16T12:54:36.277Z,18.3
2019-05-16T12:55:38.749Z,18.3
2019-05-16T12:56:42.587Z,18.3
2019-05-16T12:57:49.089Z,18.3
2019-05-16T12:58:56.037Z,18.3
2019-05-16T12:59:57.353Z,18.3
2019-05-16T13:01:02.137Z,18.3
2019-05-16T13:02:08.264Z,18.4
2019-05-16T13:03:09.800Z,18.4
2019-05-16T13:04:18.792Z,18.3
2019-05-16T13:05:20.620Z,18.3
2019-05-16T13:06:21.954Z,18.4
2019-05-16T13:07:23.337Z,18.4
2019-05-16T13:08:26.775Z,18.3
2019-05-16T13:09:37.035Z,18.4
2019-05-16T13:10:41.203Z,18.3
2019-05-16T13:11:42.863Z,18.3
2019-05-16T13:12:46.653Z,18.4
2019-05-16T13:14:02.125Z,18.3
2019-05-16T13:15:08.856Z,18.3
2019-05-16T13:16:10.367Z,18.4
2019-05-16T13:17:11.705Z,18.4
2019-05-16T13:18:16.892Z,18.4
2019-05-16T13:19:18.436Z,18.4
2019-05-16T13:20:20.014Z,18.3
2019-05-16T13:21:22.811Z,18.4
2019-05-16T13:22:24.439Z,18.4
2019-05-16T13:23:28.311Z,18.4
2019-05-16T13:24:29.639Z,18.3
2019-05-16T13:25:33.208Z,18.3
2019-05-16T13:26:37.526Z,18.3
2019-05-16T13:27:38.801Z,18.3
2019-05-16T13:28:42.977Z,18.3
2019-05-16T13:29:47.009Z,18.3
2019-05-16T13:30:51.511Z,18.4
2019-05-16T13:31:52.859Z,18.3
2019-05-16T13:32:58.358Z,18.3
2019-05-16T13:33:59.731Z,18.3
2019-05-16T13:35:03.365Z,18.3
2019-05-16T13:36:11.833Z,18.3
2019-05-16T13:37:13.525Z,18.3
2019-05-16T13:38:19.124Z,18.3
2019-05-16T13:39:20.448Z,18.3
2019-05-16T13:40:21.791Z,18.3
2019-05-16T13:41:28.338Z,18.3
2019-05-16T13:42:29.690Z,18.3
2019-05-16T13:43:31.038Z,18.3
2019-05-16T13:44:33.688Z,18.3
2019-05-16T13:45:37.474Z,18.3
2019-05-16T13:46:39.092Z,18.3
2019-05-16T13:47:40.448Z,18.3
2019-05-16T13:48:41.753Z,18.3
2019-05-16T13:49:43.532Z,18.3
2019-05-16T13:50:47.145Z,18.3
2019-05-16T13:51:49.713Z,18.3
2019-05-16T13:52:53.593Z,18.3
2019-05-16T13:53:54.931Z,18.4
2019-05-16T13:54:56.431Z,18.3
2019-05-16T13:55:57.836Z,18.4
2019-05-16T13:57:02.146Z,18.4
2019-05-16T13:58:09.929Z,18.3
2019-05-16T13:59:11.332Z,18.4
2019-05-16T14:00:12.949Z,18.4
2019-05-16T14:01:16.574Z,18.4
2019-05-16T14:02:18.493Z,18.4
2019-05-16T14:03:19.799Z,18.4
2019-05-16T14:04:21.331Z,18.4
2019-05-16T14:05:26.705Z,18.4
2019-05-16T14:06:28.230Z,18.4
2019-05-16T14:07:29.849Z,18.4
2019-05-16T14:08:33.279Z,18.3
2019-05-16T14:09:34.582Z,18.4
2019-05-16T14:10:38.446Z,18.4
2019-05-16T14:11:39.803Z,18.4
2019-05-16T14:12:49.701Z,18.4
2019-05-16T14:13:56.227Z,18.4
2019-05-16T14:15:00.245Z,18.4
2019-05-16T14:16:02.799Z,18.4
2019-05-16T14:17:04.132Z,18.4
2019-05-16T14:18:27.361Z,18.4
2019-05-16T14:19:29.073Z,18.4
2019-05-16T14:20:30.529Z,18.4
2019-05-16T14:21:31.932Z,18.4
2019-05-16T14:22:33.275Z,18.4
2019-05-16T14:23:37.901Z,18.4